Terminal Aerodrome Forecast
Issued by NWS

Home | Current Version | Previous Version | Text Only | Print | Product List | Glossary On
Versions: 1 2 3 4 5 6 7 8 9 10 11 12 13 14 15 16 17 18 19 20 21
903
FTUS45 KRIW 202323
TAFCPR
TAF
KCPR 202323Z 2100/2124 03011KT P6SM -SHRA BKN050
     FM210300 06007KT 6SM -SHRA OVC030
     FM210800 02006KT P6SM VCSH SCT035 OVC050
     FM211200 04006KT P6SM SCT050 BKN100
     FM212200 12010KT P6SM VCSH BKN050=

USA.gov is the U.S. government's official web portal to all federal, state and local government web resources and services.